createdAt,value
2023-04-03T00:01:22.460Z,60.94
2023-04-03T00:03:51.164Z,61.19
2023-04-03T00:06:19.248Z,61.55
2023-04-03T00:08:47.261Z,62.66
2023-04-03T00:11:16.239Z,60.76
2023-04-03T00:13:44.537Z,56.80
2023-04-03T00:16:12.818Z,56.62
2023-04-03T00:18:41.233Z,57.70
2023-04-03T00:21:11.707Z,58.60
2023-04-03T00:23:39.552Z,59.35
2023-04-03T00:26:07.695Z,59.91
2023-04-03T00:28:35.513Z,60.64
2023-04-03T00:31:03.801Z,61.30
2023-04-03T00:33:31.647Z,61.43
2023-04-03T00:35:59.840Z,62.14
2023-04-03T00:38:27.745Z,62.19
2023-04-03T00:40:55.599Z,63.70
2023-04-03T00:43:27.403Z,61.70
2023-04-03T00:45:58.642Z,57.30
2023-04-03T00:48:51.389Z,56.62
2023-04-03T00:51:25.505Z,57.85
2023-04-03T00:53:59.571Z,58.80
2023-04-03T00:56:29.317Z,59.73
2023-04-03T00:59:03.252Z,60.37
2023-04-03T01:01:31.749Z,61.10
2023-04-03T01:04:05.076Z,61.42
2023-04-03T01:06:38.485Z,61.87
2023-04-03T01:09:06.874Z,61.98
2023-04-03T01:11:34.957Z,63.31
2023-04-03T01:14:03.149Z,61.41
2023-04-03T01:16:32.867Z,57.41
2023-04-03T01:19:02.202Z,56.87
2023-04-03T01:22:03.852Z,57.86
2023-04-03T01:24:37.534Z,59.12
2023-04-03T01:27:08.183Z,60.34
2023-04-03T01:29:39.491Z,60.38
2023-04-03T01:32:07.458Z,61.34
2023-04-03T01:34:35.407Z,61.96
2023-04-03T01:37:03.447Z,62.68
2023-04-03T01:39:31.342Z,61.64
2023-04-03T01:42:00.424Z,58.30
2023-04-03T01:44:28.409Z,57.03
2023-04-03T01:46:56.416Z,58.10
2023-04-03T01:49:24.298Z,59.17
2023-04-03T01:51:52.180Z,59.94
2023-04-03T01:54:20.080Z,60.84
2023-04-03T01:56:48.154Z,61.26
2023-04-03T01:59:18.060Z,62.52
2023-04-03T02:01:46.316Z,63.11
2023-04-03T02:04:14.346Z,60.07
2023-04-03T02:06:42.321Z,55.85
2023-04-03T02:09:10.295Z,55.72
2023-04-03T02:11:38.259Z,57.19
2023-04-03T02:14:06.393Z,58.24
2023-04-03T02:16:34.369Z,59.34
2023-04-03T02:19:02.311Z,60.19
2023-04-03T02:21:30.364Z,60.71
2023-04-03T02:23:58.471Z,61.40
2023-04-03T02:26:26.936Z,61.94
2023-04-03T02:28:54.894Z,63.78
2023-04-03T02:31:22.864Z,61.88
2023-04-03T02:33:51.142Z,58.22
2023-04-03T02:36:18.971Z,56.36
2023-04-03T02:38:46.922Z,57.73
2023-04-03T02:41:15.682Z,59.07
2023-04-03T02:43:43.516Z,59.80
2023-04-03T02:46:11.496Z,61.06
2023-04-03T02:48:39.380Z,61.94
2023-04-03T02:51:07.381Z,63.49
2023-04-03T02:53:35.480Z,60.88
2023-04-03T02:56:03.458Z,57.26
2023-04-03T02:58:31.334Z,56.98
2023-04-03T03:00:59.232Z,58.29
2023-04-03T03:03:27.152Z,59.42
2023-04-03T03:06:13.707Z,60.40
2023-04-03T03:08:42.794Z,61.17
2023-04-03T03:11:11.482Z,62.82
2023-04-03T03:13:39.399Z,61.75
2023-04-03T03:16:07.791Z,58.07
2023-04-03T03:18:36.327Z,57.24
2023-04-03T03:21:04.880Z,58.39
2023-04-03T03:23:33.669Z,59.65
2023-04-03T03:26:06.307Z,60.56
2023-04-03T03:28:34.503Z,61.70
2023-04-03T03:31:02.454Z,62.54
2023-04-03T03:33:31.018Z,62.92
2023-04-03T03:35:59.036Z,60.14
2023-04-03T03:38:27.302Z,55.88
2023-04-03T03:40:55.313Z,56.72
2023-04-03T03:43:23.364Z,58.20
2023-04-03T03:45:53.480Z,59.30
2023-04-03T03:48:22.187Z,60.56
2023-04-03T03:50:51.200Z,61.28
2023-04-03T03:53:20.283Z,62.27
2023-04-03T03:55:48.355Z,63.64
2023-04-03T03:58:16.256Z,61.63
2023-04-03T04:00:44.279Z,58.31
2023-04-03T04:03:12.306Z,57.41
2023-04-03T04:05:40.485Z,58.70
2023-04-03T04:08:08.346Z,59.88
2023-04-03T04:10:37.016Z,60.91
2023-04-03T04:13:04.949Z,62.07
2023-04-03T04:15:32.904Z,63.28
2023-04-03T04:18:00.882Z,61.70
2023-04-03T04:20:28.900Z,58.41
2023-04-03T04:22:56.924Z,57.51
2023-04-03T04:25:25.071Z,58.91
2023-04-03T04:27:53.039Z,60.11
2023-04-03T04:30:21.005Z,61.22
2023-04-03T04:32:49.035Z,62.18
2023-04-03T04:35:18.407Z,63.44
2023-04-03T04:37:46.668Z,61.63
2023-04-03T04:40:15.763Z,58.25
2023-04-03T04:42:43.708Z,58.09
2023-04-03T04:45:11.883Z,59.94
2023-04-03T04:47:39.819Z,61.02
2023-04-03T04:50:08.670Z,61.87
2023-04-03T04:52:36.574Z,63.01
2023-04-03T04:55:05.542Z,61.42
2023-04-03T04:57:33.936Z,57.46
2023-04-03T05:00:01.980Z,57.31
2023-04-03T05:02:30.157Z,58.24
2023-04-03T05:04:58.265Z,59.63
2023-04-03T05:07:26.242Z,60.98
2023-04-03T05:09:54.106Z,61.53
2023-04-03T05:12:23.221Z,62.32
2023-04-03T05:14:51.124Z,62.81
2023-04-03T05:17:19.049Z,60.43
2023-04-03T05:19:47.103Z,56.51
2023-04-03T05:22:15.066Z,57.03
2023-04-03T05:24:43.169Z,58.58
2023-04-03T05:27:12.058Z,59.98
2023-04-03T05:29:40.043Z,60.95
2023-04-03T05:32:07.907Z,61.57
2023-04-03T05:34:35.937Z,63.09
2023-04-03T05:37:05.420Z,61.02
2023-04-03T05:39:33.913Z,56.98
2023-04-03T05:42:01.777Z,57.27
2023-04-03T05:44:29.731Z,58.86
2023-04-03T05:46:57.682Z,60.15
2023-04-03T05:49:25.673Z,61.21
2023-04-03T05:51:53.572Z,61.86
2023-04-03T05:54:30.141Z,62.91
2023-04-03T05:56:58.175Z,60.51
2023-04-03T05:59:26.116Z,56.56
2023-04-03T06:01:53.978Z,57.29
2023-04-03T06:04:22.285Z,58.63
2023-04-03T06:06:55.861Z,59.73
2023-04-03T06:09:27.266Z,60.81
2023-04-03T06:11:55.375Z,61.53
2023-04-03T06:14:23.215Z,62.73
2023-04-03T06:16:51.091Z,61.54
2023-04-03T06:19:19.332Z,57.76
2023-04-03T06:21:48.308Z,56.95
2023-04-03T06:24:18.129Z,58.41
2023-04-03T06:26:46.718Z,59.43
2023-04-03T06:29:14.802Z,60.21
2023-04-03T06:31:42.761Z,60.80
2023-04-03T06:34:11.929Z,61.26
2023-04-03T06:36:40.593Z,61.80
2023-04-03T06:39:10.517Z,62.11
2023-04-03T06:41:38.486Z,62.89
2023-04-03T06:44:06.451Z,60.45
2023-04-03T06:46:34.289Z,56.97
2023-04-03T06:49:02.560Z,55.68
2023-04-03T06:51:31.321Z,56.34
2023-04-03T06:54:00.743Z,57.86
2023-04-03T06:56:29.358Z,58.58
2023-04-03T06:58:58.788Z,59.21
2023-04-03T07:01:29.289Z,59.63
2023-04-03T07:03:57.555Z,59.84
2023-04-03T07:06:28.858Z,59.84
2023-04-03T07:08:57.054Z,60.17
2023-04-03T07:11:25.103Z,60.47
2023-04-03T07:13:53.579Z,60.66
2023-04-03T07:16:21.800Z,60.65
2023-04-03T07:18:49.783Z,60.98
2023-04-03T07:21:17.876Z,60.92
2023-04-03T07:23:45.965Z,60.87
2023-04-03T07:26:13.876Z,61.36
2023-04-03T07:28:42.537Z,61.28
2023-04-03T07:31:14.760Z,60.52
2023-04-03T07:33:43.949Z,60.63
2023-04-03T07:36:16.917Z,60.15
2023-04-03T07:38:44.814Z,59.60
2023-04-03T07:41:18.731Z,60.30
2023-04-03T07:43:47.989Z,59.72
2023-04-03T07:46:15.872Z,59.52
2023-04-03T07:48:43.900Z,58.81
2023-04-03T07:51:11.783Z,58.20
2023-04-03T07:53:39.775Z,57.30
2023-04-03T07:56:08.199Z,56.71
2023-04-03T07:58:36.980Z,56.45
2023-04-03T08:01:05.254Z,55.79
2023-04-03T08:03:33.324Z,53.77
2023-04-03T08:06:09.126Z,54.26
2023-04-03T08:08:39.607Z,53.83
2023-04-03T08:11:09.099Z,51.96
2023-04-03T08:13:37.171Z,51.74
2023-04-03T08:16:13.666Z,52.00
2023-04-03T08:18:41.483Z,50.24
2023-04-03T08:21:11.765Z,48.76
2023-04-03T08:23:42.728Z,47.08
2023-04-03T08:26:16.393Z,47.11
2023-04-03T08:28:44.359Z,47.45
2023-04-03T08:31:18.094Z,47.74
2023-04-03T08:33:46.365Z,47.93
2023-04-03T08:36:29.307Z,47.89
2023-04-03T08:38:57.484Z,46.50
2023-04-03T08:41:40.709Z,46.27
2023-04-03T08:44:29.910Z,45.73
2023-04-03T08:47:26.342Z,46.49
2023-04-03T08:50:01.792Z,45.97
2023-04-03T08:53:07.710Z,45.75
2023-04-03T08:55:49.783Z,44.59
2023-04-03T08:58:23.607Z,44.32
2023-04-03T09:01:09.086Z,42.48
2023-04-03T09:03:41.313Z,42.26
2023-04-03T09:06:23.540Z,41.49
2023-04-03T09:09:36.432Z,39.18
2023-04-03T09:12:41.205Z,38.55
2023-04-03T09:15:37.733Z,38.28
2023-04-03T09:18:17.856Z,38.57
2023-04-03T09:21:17.707Z,38.70
2023-04-03T09:23:50.810Z,38.75
2023-04-03T09:26:36.460Z,38.94
2023-04-03T09:29:08.837Z,39.71
2023-04-03T09:31:44.911Z,39.05
2023-04-03T09:34:33.437Z,38.52
2023-04-03T09:37:09.772Z,38.99
2023-04-03T09:39:54.591Z,38.33
2023-04-03T09:42:25.425Z,38.04
2023-04-03T09:45:04.859Z,38.64
2023-04-03T09:47:36.221Z,39.13
2023-04-03T09:50:16.062Z,37.79
2023-04-03T09:52:47.242Z,36.83
2023-04-03T09:55:15.442Z,36.24
2023-04-03T09:57:43.323Z,35.86
2023-04-03T10:00:39.745Z,36.01
2023-04-03T10:03:29.801Z,36.21
2023-04-03T10:05:58.889Z,36.31
2023-04-03T10:08:30.718Z,36.84
2023-04-03T10:11:19.853Z,36.50
2023-04-03T10:14:03.994Z,36.41
2023-04-03T10:16:48.567Z,36.39
2023-04-03T10:19:44.878Z,35.87
2023-04-03T10:22:56.259Z,36.77
2023-04-03T10:25:41.409Z,36.72
2023-04-03T10:28:55.934Z,35.73
2023-04-03T10:31:35.351Z,35.98
2023-04-03T10:34:37.224Z,35.25
2023-04-03T10:37:37.612Z,34.99
2023-04-03T10:40:52.680Z,34.84
2023-04-03T10:43:26.731Z,35.07
2023-04-03T10:46:07.326Z,34.37
2023-04-03T10:49:12.979Z,33.56
2023-04-03T10:51:47.256Z,34.14
2023-04-03T10:54:26.181Z,33.27
2023-04-03T10:57:12.927Z,34.10
2023-04-03T11:00:06.389Z,34.07
2023-04-03T11:02:49.541Z,33.58
2023-04-03T11:05:31.013Z,33.84
2023-04-03T11:08:04.348Z,33.53
2023-04-03T11:10:48.768Z,33.16
2023-04-03T11:13:33.912Z,33.94
2023-04-03T11:16:03.890Z,33.98
2023-04-03T11:18:53.754Z,34.55
2023-04-03T11:21:30.672Z,35.06
2023-04-03T11:24:01.630Z,35.39
2023-04-03T11:26:37.776Z,34.75
2023-04-03T11:29:17.888Z,34.44
2023-04-03T11:32:30.728Z,34.67
2023-04-03T11:35:02.651Z,35.04
2023-04-03T11:37:45.982Z,35.46
2023-04-03T11:40:17.016Z,35.21
2023-04-03T11:42:54.423Z,35.40
2023-04-03T11:45:51.962Z,35.76
2023-04-03T11:48:24.892Z,35.73
2023-04-03T11:50:53.337Z,35.89
2023-04-03T11:53:30.329Z,35.95
2023-04-03T11:56:24.895Z,36.13
2023-04-03T11:59:19.287Z,36.52
2023-04-03T12:01:59.104Z,36.69
2023-04-03T12:04:29.917Z,36.94
2023-04-03T12:07:16.498Z,36.62
2023-04-03T12:09:44.673Z,36.42
2023-04-03T12:12:29.949Z,36.78
2023-04-03T12:15:42.578Z,37.03
2023-04-03T12:18:54.586Z,37.62
2023-04-03T12:21:45.999Z,36.98
2023-04-03T12:24:17.022Z,37.32
2023-04-03T12:27:17.246Z,37.17
2023-04-03T12:29:48.922Z,37.66
2023-04-03T12:32:28.043Z,37.56
2023-04-03T12:34:58.916Z,37.23
2023-04-03T12:38:06.955Z,37.28
2023-04-03T12:40:43.688Z,37.18
2023-04-03T12:43:56.394Z,36.73
2023-04-03T12:46:25.807Z,36.41
2023-04-03T12:48:57.618Z,36.57
2023-04-03T12:51:46.519Z,37.06
2023-04-03T12:54:28.537Z,36.83
2023-04-03T12:57:22.726Z,36.15
2023-04-03T12:59:50.720Z,36.63
2023-04-03T13:02:29.061Z,36.53
2023-04-03T13:05:01.594Z,35.93
2023-04-03T13:07:35.941Z,35.70
2023-04-03T13:10:10.016Z,35.10
2023-04-03T13:13:10.941Z,35.09
2023-04-03T13:15:49.987Z,35.48
2023-04-03T13:18:33.772Z,35.81
2023-04-03T13:21:27.816Z,36.38
2023-04-03T13:24:13.731Z,36.19
2023-04-03T13:26:43.506Z,36.26
2023-04-03T13:29:31.161Z,35.30
2023-04-03T13:32:02.129Z,35.57
2023-04-03T13:34:38.489Z,36.34
2023-04-03T13:37:06.522Z,37.07
2023-04-03T13:39:38.388Z,37.05
2023-04-03T13:42:24.116Z,36.58
2023-04-03T13:45:29.633Z,36.46
2023-04-03T13:48:22.151Z,36.48
2023-04-03T13:51:06.426Z,36.82
2023-04-03T13:53:35.670Z,36.96
2023-04-03T13:56:21.943Z,36.95
2023-04-03T13:59:18.135Z,36.70
2023-04-03T14:01:54.168Z,36.01
2023-04-03T14:04:29.516Z,36.64
2023-04-03T14:06:57.966Z,36.96
2023-04-03T14:09:28.622Z,37.19
2023-04-03T14:12:11.326Z,37.56
2023-04-03T14:14:46.721Z,37.84
2023-04-03T14:17:25.072Z,37.93
2023-04-03T14:19:56.653Z,37.88
2023-04-03T14:22:26.153Z,37.74
2023-04-03T14:24:54.784Z,37.46
2023-04-03T14:27:35.799Z,37.28
2023-04-03T14:30:05.839Z,37.78
2023-04-03T14:32:34.425Z,37.79
2023-04-03T14:35:03.380Z,37.65
2023-04-03T14:37:32.653Z,37.61
2023-04-03T14:40:03.246Z,37.20
2023-04-03T14:42:35.704Z,37.42
2023-04-03T14:45:09.628Z,37.96
2023-04-03T14:48:02.544Z,37.78
2023-04-03T14:50:30.497Z,37.08
2023-04-03T14:52:59.885Z,37.16
2023-04-03T14:55:28.790Z,37.30
2023-04-03T14:57:59.468Z,37.66
2023-04-03T15:00:28.388Z,38.02
2023-04-03T15:02:56.397Z,38.42
2023-04-03T15:05:24.413Z,38.56
2023-04-03T15:07:57.383Z,38.80
2023-04-03T15:10:28.676Z,39.23
2023-04-03T15:12:57.219Z,38.39
2023-04-03T15:15:26.015Z,38.04
2023-04-03T15:17:57.383Z,38.17
2023-04-03T15:20:28.001Z,37.94
2023-04-03T15:22:57.528Z,37.60
2023-04-03T15:25:26.494Z,37.86
2023-04-03T15:27:56.275Z,38.15
2023-04-03T15:30:24.335Z,38.74
2023-04-03T15:32:52.512Z,38.84
2023-04-03T15:35:20.590Z,38.98
2023-04-03T15:37:49.261Z,39.24
2023-04-03T15:40:17.334Z,39.12
2023-04-03T15:42:45.232Z,39.35
2023-04-03T15:45:13.124Z,39.09
2023-04-03T15:47:41.222Z,38.33
2023-04-03T15:50:10.050Z,38.41
2023-04-03T15:52:37.912Z,38.43
2023-04-03T15:55:07.018Z,38.72
2023-04-03T16:00:02.757Z,39.37
2023-04-03T16:02:30.799Z,39.38
2023-04-03T16:04:58.896Z,39.24
2023-04-03T16:07:27.105Z,39.49
2023-04-03T16:09:55.119Z,39.73
2023-04-03T16:12:23.694Z,39.73
2023-04-03T16:14:52.822Z,39.82
2023-04-03T16:17:24.031Z,39.84
2023-04-03T16:19:53.946Z,39.74
2023-04-03T16:22:22.962Z,39.61
2023-04-03T16:24:51.095Z,39.88
2023-04-03T16:27:19.747Z,40.41
2023-04-03T16:29:47.832Z,41.26
2023-04-03T16:32:15.962Z,41.53
2023-04-03T16:34:43.929Z,41.63
2023-04-03T16:37:11.858Z,41.61
2023-04-03T16:39:39.764Z,41.65
2023-04-03T16:42:07.662Z,41.11
2023-04-03T16:44:35.646Z,41.06
2023-04-03T16:47:03.950Z,40.75
2023-04-03T16:49:33.982Z,40.26
2023-04-03T16:52:04.349Z,40.15
2023-04-03T16:54:33.013Z,40.14
2023-04-03T16:57:00.987Z,39.96
2023-04-03T16:59:29.041Z,39.65
2023-04-03T17:01:57.268Z,39.35
2023-04-03T17:04:25.512Z,39.32
2023-04-03T17:06:53.373Z,39.18
2023-04-03T17:09:22.053Z,39.19
2023-04-03T17:11:50.019Z,39.09
2023-04-03T17:14:18.239Z,39.16
2023-04-03T17:16:46.370Z,39.32
2023-04-03T17:19:15.090Z,39.40
2023-04-03T17:21:43.137Z,39.62
2023-04-03T17:24:13.541Z,39.63
2023-04-03T17:26:43.025Z,39.72
2023-04-03T17:29:13.616Z,39.90
2023-04-03T17:31:41.832Z,40.27
2023-04-03T17:34:12.155Z,40.35
2023-04-03T17:36:41.347Z,40.74
2023-04-03T17:39:09.307Z,40.71
2023-04-03T17:41:37.328Z,40.94
2023-04-03T17:44:06.210Z,41.07
2023-04-03T17:46:35.432Z,41.20
2023-04-03T17:49:04.720Z,41.30
2023-04-03T17:51:36.344Z,41.60
2023-04-03T17:54:04.307Z,41.85
2023-04-03T17:56:32.216Z,41.99
2023-04-03T17:59:00.375Z,42.37
2023-04-03T18:01:32.018Z,42.52
2023-04-03T18:04:03.168Z,42.60
2023-04-03T18:06:39.854Z,42.88
2023-04-03T18:09:17.556Z,43.18
2023-04-03T18:11:47.609Z,43.33
2023-04-03T18:14:20.343Z,43.77
2023-04-03T18:16:48.579Z,43.70
2023-04-03T18:21:49.652Z,44.17
2023-04-03T18:24:20.060Z,44.28
2023-04-03T18:26:54.111Z,44.66
2023-04-03T18:29:22.543Z,44.68
2023-04-03T18:31:53.065Z,45.13
2023-04-03T18:34:21.309Z,44.94
2023-04-03T18:36:49.450Z,45.57
2023-04-03T18:39:17.472Z,45.91
2023-04-03T18:41:45.683Z,45.61
2023-04-03T18:44:16.737Z,46.10
2023-04-03T18:46:45.014Z,46.05
2023-04-03T18:49:14.140Z,46.43
2023-04-03T18:51:42.410Z,46.62
2023-04-03T18:54:18.365Z,46.64
2023-04-03T18:56:49.414Z,46.82
2023-04-03T18:59:17.417Z,46.76
2023-04-03T19:01:48.052Z,46.88
2023-04-03T19:04:16.257Z,47.54
2023-04-03T19:06:44.238Z,47.40
2023-04-03T19:09:14.464Z,47.42
2023-04-03T19:11:42.473Z,47.58
2023-04-03T19:14:16.714Z,47.75
2023-04-03T19:16:45.553Z,47.82
2023-04-03T19:19:13.747Z,47.92
2023-04-03T19:21:42.222Z,48.42
2023-04-03T19:24:12.653Z,48.42
2023-04-03T19:26:42.505Z,48.47
2023-04-03T19:29:10.780Z,48.93
2023-04-03T19:31:39.397Z,48.81
2023-04-03T19:34:08.124Z,49.16
2023-04-03T19:36:36.512Z,49.09
2023-04-03T19:39:06.075Z,49.63
2023-04-03T19:41:35.793Z,49.32
2023-04-03T19:44:06.612Z,49.89
2023-04-03T19:46:35.648Z,49.71
2023-04-03T19:49:04.311Z,49.78
2023-04-03T19:51:32.278Z,50.28
2023-04-03T19:54:00.404Z,49.83
2023-04-03T19:56:28.313Z,50.05
2023-04-03T19:58:57.023Z,50.37
2023-04-03T20:01:26.968Z,50.42
2023-04-03T20:03:55.575Z,50.55
2023-04-03T20:06:23.534Z,50.95
2023-04-03T20:08:51.591Z,51.07
2023-04-03T20:11:19.947Z,51.26
2023-04-03T20:13:52.469Z,51.31
2023-04-03T20:16:24.525Z,51.89
2023-04-03T20:18:55.918Z,51.71
2023-04-03T20:21:30.763Z,52.11
2023-04-03T20:24:04.621Z,52.16
2023-04-03T20:26:34.829Z,53.37
2023-04-03T20:29:04.461Z,52.92
2023-04-03T20:31:33.591Z,53.03
2023-04-03T20:34:02.118Z,53.06
2023-04-03T20:36:31.166Z,53.10
2023-04-03T20:38:59.845Z,53.29
2023-04-03T20:41:28.003Z,53.14
2023-04-03T20:43:55.916Z,53.52
2023-04-03T20:46:34.960Z,53.34
2023-04-03T20:49:10.390Z,53.51
2023-04-03T20:51:38.868Z,53.59
2023-04-03T20:54:07.331Z,53.40
2023-04-03T20:56:35.660Z,53.63
2023-04-03T20:59:04.937Z,53.26
2023-04-03T21:01:33.509Z,53.75
2023-04-03T21:04:24.798Z,53.70
2023-04-03T21:07:48.437Z,53.85
2023-04-03T21:11:11.941Z,53.70
2023-04-03T21:14:35.381Z,54.56
2023-04-03T21:17:03.987Z,54.49
2023-04-03T21:19:31.905Z,54.54
2023-04-03T21:22:01.012Z,54.59
2023-04-03T21:24:29.509Z,54.46
2023-04-03T21:26:58.208Z,54.52
2023-04-03T21:29:26.209Z,55.16
2023-04-03T21:31:59.432Z,55.26
2023-04-03T21:34:31.968Z,55.55
2023-04-03T21:37:08.029Z,55.41
2023-04-03T21:39:36.237Z,55.23
2023-04-03T21:42:04.447Z,55.73
2023-04-03T21:44:32.589Z,56.40
2023-04-03T21:47:01.000Z,56.41
2023-04-03T21:49:29.493Z,56.94
2023-04-03T21:51:57.545Z,56.87
2023-04-03T21:54:25.488Z,56.60
2023-04-03T21:56:53.397Z,56.81
2023-04-03T21:59:21.659Z,56.63
2023-04-03T22:01:49.714Z,56.45
2023-04-03T22:04:17.638Z,56.42
2023-04-03T22:06:45.862Z,56.63
2023-04-03T22:09:14.039Z,56.74
2023-04-03T22:11:46.060Z,57.07
2023-04-03T22:14:14.170Z,57.01
2023-04-03T22:16:42.205Z,57.38
2023-04-03T22:19:10.160Z,57.32
2023-04-03T22:21:38.023Z,56.90
2023-04-03T22:24:06.214Z,56.80
2023-04-03T22:26:35.130Z,56.62
2023-04-03T22:29:03.773Z,56.59
2023-04-03T22:31:31.732Z,56.32
2023-04-03T22:34:03.896Z,56.27
2023-04-03T22:36:31.836Z,56.12
2023-04-03T22:39:00.620Z,55.84
2023-04-03T22:41:28.634Z,55.61
2023-04-03T22:43:57.760Z,55.62
2023-04-03T22:46:26.038Z,55.63
2023-04-03T22:48:53.922Z,55.69
2023-04-03T22:51:21.771Z,55.81
2023-04-03T22:53:49.594Z,55.74
2023-04-03T22:56:17.517Z,55.54
2023-04-03T22:58:48.041Z,55.62
2023-04-03T23:01:16.206Z,55.64
2023-04-03T23:03:44.048Z,55.52
2023-04-03T23:06:13.423Z,55.68
2023-04-03T23:08:42.759Z,55.54
2023-04-03T23:11:10.755Z,55.41
2023-04-03T23:13:38.693Z,55.49
2023-04-03T23:16:07.148Z,55.39
2023-04-03T23:18:39.800Z,55.41
2023-04-03T23:21:08.508Z,55.54
2023-04-03T23:23:36.518Z,55.42
2023-04-03T23:26:04.457Z,55.80
2023-04-03T23:28:32.353Z,55.58
2023-04-03T23:31:02.415Z,55.77
2023-04-03T23:33:31.978Z,55.61
2023-04-03T23:36:07.338Z,55.91
2023-04-03T23:38:36.090Z,55.79
2023-04-03T23:41:03.984Z,56.08
2023-04-03T23:43:32.188Z,55.95
2023-04-03T23:46:00.219Z,56.07
2023-04-03T23:48:28.122Z,56.34
2023-04-03T23:50:56.280Z,56.07
2023-04-03T23:53:24.186Z,56.61
2023-04-03T23:55:52.169Z,56.29
2023-04-03T23:58:20.305Z,56.68
